Time,TemperatureF,DewpointF,PressureIn,WindDirection,WindDirectionDegrees,WindSpeedMPH,WindSpeedGustMPH,Humidity,HourlyPrecipIn,Conditions,Clouds,dailyrainin,SoftwareType,DateUTC
2013-04-17 00:00:00,42.2,35.2,30.29,NNW,337,4.0,8.0,76,0.00,,,-99.99,WeatherLink 5.4,2013-04-17 04:00:00,
2013-04-17 00:10:00,42.4,35.0,30.29,North,0,5.0,8.0,75,0.00,,,-99.99,WeatherLink 5.4,2013-04-17 04:10:00,
2013-04-17 00:20:00,42.2,34.8,30.30,North,0,5.0,7.0,75,0.00,,,-99.99,WeatherLink 5.4,2013-04-17 04:20:00,
2013-04-17 00:30:00,42.3,34.9,30.30,North,0,6.0,10.0,75,0.00,,,-99.99,WeatherLink 5.4,2013-04-17 04:30:00,
2013-04-17 00:40:00,42.2,34.5,30.30,North,0,6.0,10.0,74,0.00,,,-99.99,WeatherLink 5.4,2013-04-17 04:40:00,
2013-04-17 00:50:00,42.2,34.5,30.30,NNE,22,6.0,9.0,74,0.00,,,-99.99,WeatherLink 5.4,2013-04-17 04:50:00,
2013-04-17 01:00:00,42.2,34.5,30.30,North,0,6.0,8.0,74,0.00,,,-99.99,WeatherLink 5.4,2013-04-17 05:00:00,
2013-04-17 01:10:00,42.2,34.5,30.30,NNE,22,7.0,11.0,74,0.00,,,-99.99,WeatherLink 5.4,2013-04-17 05:10:00,
2013-04-17 01:20:00,42.1,34.4,30.31,North,0,7.0,11.0,74,0.00,,,-99.99,WeatherLink 5.4,2013-04-17 05:20:00,
2013-04-17 01:30:00,42.2,34.2,30.32,NNE,22,7.0,12.0,73,0.00,,,-99.99,WeatherLink 5.4,2013-04-17 05:30:00,
2013-04-17 01:40:00,42.4,34.0,30.33,NNE,22,6.0,9.0,72,0.00,,,-99.99,WeatherLink 5.4,2013-04-17 05:40:00,
2013-04-17 01:50:00,42.7,33.9,30.33,NNE,22,6.0,12.0,71,0.00,,,-99.99,WeatherLink 5.4,2013-04-17 05:50:00,
2013-04-17 02:00:00,42.9,33.4,30.33,NNE,22,7.0,14.0,69,0.00,,,-99.99,WeatherLink 5.4,2013-04-17 06:00:00,
2013-04-17 02:10:00,43.0,33.5,30.34,NE,45,6.0,14.0,69,0.00,,,-99.99,WeatherLink 5.4,2013-04-17 06:10:00,
2013-04-17 02:20:00,43.1,33.6,30.33,ENE,67,8.0,14.0,69,0.00,,,-99.99,WeatherLink 5.4,2013-04-17 06:20:00,
2013-04-17 02:30:00,43.1,32.9,30.33,ENE,67,7.0,14.0,67,0.00,,,-99.99,WeatherLink 5.4,2013-04-17 06:30:00,
2013-04-17 02:40:00,43.1,32.9,30.34,East,90,6.0,11.0,67,0.00,,,-99.99,WeatherLink 5.4,2013-04-17 06:40:00,
2013-04-17 02:50:00,43.1,32.9,30.34,ENE,67,8.0,13.0,67,0.00,,,-99.99,WeatherLink 5.4,2013-04-17 06:50:00,
2013-04-17 03:00:00,43.1,32.9,30.34,ENE,67,8.0,13.0,67,0.00,,,-99.99,WeatherLink 5.4,2013-04-17 07:00:00,
2013-04-17 03:10:00,43.1,32.9,30.34,ENE,67,8.0,15.0,67,0.00,,,-99.99,WeatherLink 5.4,2013-04-17 07:10:00,
2013-04-17 03:20:00,43.1,32.9,30.34,East,90,8.0,14.0,67,0.00,,,-99.99,WeatherLink 5.4,2013-04-17 07:20:00,
2013-04-17 03:30:00,43.0,33.2,30.34,East,90,9.0,14.0,68,0.00,,,-99.99,WeatherLink 5.4,2013-04-17 07:30:00,
2013-04-17 03:40:00,42.9,33.1,30.35,East,90,9.0,18.0,68,0.00,,,-99.99,WeatherLink 5.4,2013-04-17 07:40:00,
2013-04-17 03:50:00,42.9,32.7,30.35,NNE,22,8.0,13.0,67,0.00,,,-99.99,WeatherLink 5.4,2013-04-17 07:50:00,
2013-04-17 04:00:00,42.8,33.0,30.36,ENE,67,7.0,14.0,68,0.00,,,-99.99,WeatherLink 5.4,2013-04-17 08:00:00,
2013-04-17 04:10:00,42.8,33.0,30.35,East,90,8.0,13.0,68,0.00,,,-99.99,WeatherLink 5.4,2013-04-17 08:10:00,
2013-04-17 04:20:00,42.7,33.2,30.34,East,90,11.0,16.0,69,0.00,,,-99.99,WeatherLink 5.4,2013-04-17 08:20:00,
2013-04-17 04:30:00,42.7,33.2,30.35,ENE,67,9.0,13.0,69,0.00,,,-99.99,WeatherLink 5.4,2013-04-17 08:30:00,
2013-04-17 04:40:00,42.7,33.2,30.35,ENE,67,8.0,15.0,69,0.00,,,-99.99,WeatherLink 5.4,2013-04-17 08:40:00,
2013-04-17 04:50:00,42.7,33.6,30.35,East,90,9.0,16.0,70,0.00,,,-99.99,WeatherLink 5.4,2013-04-17 08:50:00,
2013-04-17 05:00:00,42.6,33.5,30.34,East,90,11.0,19.0,70,0.00,,,-99.99,WeatherLink 5.4,2013-04-17 09:00:00,
2013-04-17 05:10:00,42.5,34.5,30.35,East,90,14.0,21.0,73,0.00,,,-99.99,WeatherLink 5.4,2013-04-17 09:10:00,
2013-04-17 05:20:00,42.3,34.6,30.34,East,90,15.0,21.0,74,0.00,,,-99.99,WeatherLink 5.4,2013-04-17 09:20:00,
2013-04-17 05:30:00,42.1,34.4,30.34,East,90,15.0,26.0,74,0.00,,,-99.99,WeatherLink 5.4,2013-04-17 09:30:00,
2013-04-17 05:40:00,42.1,34.7,30.34,East,90,16.0,24.0,75,0.00,,,-99.99,WeatherLink 5.4,2013-04-17 09:40:00,
2013-04-17 05:50:00,41.9,34.9,30.34,East,90,15.0,21.0,76,0.00,,,-99.99,WeatherLink 5.4,2013-04-17 09:50:00,
2013-04-17 06:00:00,41.5,34.8,30.34,East,90,14.0,21.0,77,0.00,,,-99.99,WeatherLink 5.4,2013-04-17 10:00:00,
2013-04-17 06:10:00,41.1,34.4,30.33,East,90,15.0,23.0,77,0.00,,,-99.99,WeatherLink 5.4,2013-04-17 10:10:00,
2013-04-17 06:20:00,40.9,34.6,30.33,East,90,15.0,22.0,78,0.00,,,-99.99,WeatherLink 5.4,2013-04-17 10:20:00,
2013-04-17 06:30:00,40.7,34.4,30.34,East,90,14.0,20.0,78,0.00,,,-99.99,WeatherLink 5.4,2013-04-17 10:30:00,
2013-04-17 06:40:00,40.4,34.1,30.34,East,90,14.0,20.0,78,0.00,,,-99.99,WeatherLink 5.4,2013-04-17 10:40:00,
2013-04-17 06:50:00,40.1,34.1,30.33,East,90,14.0,22.0,79,0.00,,,-99.99,WeatherLink 5.4,2013-04-17 10:50:00,
2013-04-17 07:00:00,40.0,34.0,30.34,East,90,16.0,22.0,79,0.00,,,-99.99,WeatherLink 5.4,2013-04-17 11:00:00,
2013-04-17 07:10:00,40.0,34.0,30.34,East,90,15.0,22.0,79,0.00,,,-99.99,WeatherLink 5.4,2013-04-17 11:10:00,
2013-04-17 07:20:00,40.1,34.1,30.35,East,90,16.0,23.0,79,0.00,,,-99.99,WeatherLink 5.4,2013-04-17 11:20:00,
2013-04-17 07:30:00,40.2,34.2,30.34,East,90,18.0,26.0,79,0.00,,,-99.99,WeatherLink 5.4,2013-04-17 11:30:00,
2013-04-17 07:40:00,40.4,34.4,30.34,East,90,17.0,28.0,79,0.00,,,-99.99,WeatherLink 5.4,2013-04-17 11:40:00,
2013-04-17 07:50:00,40.6,34.3,30.34,East,90,18.0,24.0,78,0.00,,,-99.99,WeatherLink 5.4,2013-04-17 11:50:00,
2013-04-17 08:00:00,40.6,34.3,30.34,East,90,17.0,23.0,78,0.00,,,-99.99,WeatherLink 5.4,2013-04-17 12:00:00,
2013-04-17 08:10:00,40.8,34.1,30.33,East,90,21.0,27.0,77,0.00,,,-99.99,WeatherLink 5.4,2013-04-17 12:10:00,
2013-04-17 08:20:00,41.4,34.4,30.33,East,90,21.0,27.0,76,0.00,,,-99.99,WeatherLink 5.4,2013-04-17 12:20:00,
2013-04-17 08:30:00,41.6,34.3,30.34,East,90,19.0,26.0,75,0.00,,,-99.99,WeatherLink 5.4,2013-04-17 12:30:00,
2013-04-17 08:40:00,42.1,34.7,30.34,East,90,18.0,28.0,75,0.00,,,-99.99,WeatherLink 5.4,2013-04-17 12:40:00,
2013-04-17 08:50:00,42.3,34.6,30.34,East,90,20.0,28.0,74,0.00,,,-99.99,WeatherLink 5.4,2013-04-17 12:50:00,
2013-04-17 09:00:00,42.3,34.6,30.34,East,90,21.0,28.0,74,0.00,,,-99.99,WeatherLink 5.4,2013-04-17 13:00:00,
2013-04-17 09:10:00,42.8,35.1,30.34,East,90,20.0,28.0,74,0.00,,,-99.99,WeatherLink 5.4,2013-04-17 13:10:00,
2013-04-17 09:20:00,43.3,35.2,30.33,East,90,21.0,27.0,73,0.00,,,-99.99,WeatherLink 5.4,2013-04-17 13:20:00,
2013-04-17 09:30:00,43.5,34.7,30.33,East,90,22.0,31.0,71,0.00,,,-99.99,WeatherLink 5.4,2013-04-17 13:30:00,
2013-04-17 09:40:00,43.6,34.8,30.33,East,90,21.0,30.0,71,0.00,,,-99.99,WeatherLink 5.4,2013-04-17 13:40:00,
2013-04-17 09:50:00,44.5,36.4,30.33,East,90,19.0,29.0,73,0.00,,,-99.99,WeatherLink 5.4,2013-04-17 13:50:00,
2013-04-17 10:00:00,44.8,36.0,30.32,East,90,19.0,27.0,71,0.00,,,-99.99,WeatherLink 5.4,2013-04-17 14:00:00,
2013-04-17 10:10:00,44.7,35.5,30.32,East,90,21.0,29.0,70,0.00,,,-99.99,WeatherLink 5.4,2013-04-17 14:10:00,
2013-04-17 10:20:00,45.0,35.4,30.33,East,90,18.0,25.0,69,0.00,,,-99.99,WeatherLink 5.4,2013-04-17 14:20:00,
2013-04-17 10:30:00,45.6,36.4,30.32,East,90,18.0,25.0,70,0.00,,,-99.99,WeatherLink 5.4,2013-04-17 14:30:00,
2013-04-17 10:40:00,46.4,37.1,30.33,East,90,17.0,24.0,70,0.00,,,-99.99,WeatherLink 5.4,2013-04-17 14:40:00,
2013-04-17 10:50:00,46.8,36.0,30.32,East,90,19.0,26.0,66,0.00,,,-99.99,WeatherLink 5.4,2013-04-17 14:50:00,
2013-04-17 11:00:00,47.0,37.0,30.32,East,90,22.0,30.0,68,0.00,,,-99.99,WeatherLink 5.4,2013-04-17 15:00:00,
2013-04-17 11:10:00,47.0,37.0,30.30,East,90,21.0,30.0,68,0.00,,,-99.99,WeatherLink 5.4,2013-04-17 15:10:00,
2013-04-17 11:20:00,47.7,37.7,30.32,East,90,19.0,26.0,68,0.00,,,-99.99,WeatherLink 5.4,2013-04-17 15:20:00,
2013-04-17 11:30:00,48.1,37.7,30.32,East,90,19.0,27.0,67,0.00,,,-99.99,WeatherLink 5.4,2013-04-17 15:30:00,
2013-04-17 11:40:00,47.9,37.1,30.33,East,90,16.0,25.0,66,0.00,,,-99.99,WeatherLink 5.4,2013-04-17 15:40:00,
2013-04-17 11:50:00,48.3,38.2,30.33,East,90,17.0,25.0,68,0.00,,,-99.99,WeatherLink 5.4,2013-04-17 15:50:00,
2013-04-17 12:00:00,47.9,37.8,30.31,East,90,18.0,25.0,68,0.00,,,-99.99,WeatherLink 5.4,2013-04-17 16:00:00,
2013-04-17 12:10:00,47.7,37.7,30.33,East,90,16.0,23.0,68,0.00,,,-99.99,WeatherLink 5.4,2013-04-17 16:10:00,
2013-04-17 12:20:00,47.5,37.5,30.34,East,90,13.0,22.0,68,0.00,,,-99.99,WeatherLink 5.4,2013-04-17 16:20:00,
2013-04-17 12:30:00,47.4,37.7,30.33,East,90,14.0,21.0,69,0.00,,,-99.99,WeatherLink 5.4,2013-04-17 16:30:00,
2013-04-17 12:40:00,47.1,37.8,30.31,East,90,17.0,23.0,70,0.00,,,-99.99,WeatherLink 5.4,2013-04-17 16:40:00,
2013-04-17 12:50:00,46.9,38.0,30.24,East,90,23.0,31.0,71,0.00,,,-99.99,WeatherLink 5.4,2013-04-17 16:50:00,
2013-04-17 13:00:00,47.0,38.4,30.20,East,90,26.0,34.0,72,0.00,,,-99.99,WeatherLink 5.4,2013-04-17 17:00:00,
2013-04-17 13:10:00,47.7,39.5,30.19,East,90,25.0,37.0,73,0.00,,,-99.99,WeatherLink 5.4,2013-04-17 17:10:00,
2013-04-17 13:20:00,48.0,39.0,30.20,East,90,26.0,35.0,71,0.00,,,-99.99,WeatherLink 5.4,2013-04-17 17:20:00,
2013-04-17 13:30:00,48.2,39.2,30.23,East,90,22.0,33.0,71,0.00,,,-99.99,WeatherLink 5.4,2013-04-17 17:30:00,
2013-04-17 13:40:00,48.0,39.0,30.22,East,90,21.0,32.0,71,0.00,,,-99.99,WeatherLink 5.4,2013-04-17 17:40:00,
2013-04-17 13:50:00,48.4,39.8,30.22,East,90,20.0,29.0,72,0.00,,,-99.99,WeatherLink 5.4,2013-04-17 17:50:00,
2013-04-17 14:00:00,48.1,39.5,30.22,East,90,17.0,25.0,72,0.00,,,-99.99,WeatherLink 5.4,2013-04-17 18:00:00,
2013-04-17 14:10:00,48.2,39.9,30.23,East,90,17.0,25.0,73,0.00,,,-99.99,WeatherLink 5.4,2013-04-17 18:10:00,
2013-04-17 14:20:00,48.3,40.4,30.23,East,90,17.0,25.0,74,0.00,,,-99.99,WeatherLink 5.4,2013-04-17 18:20:00,
2013-04-17 14:30:00,48.6,41.0,30.23,East,90,14.0,20.0,75,0.00,,,-99.99,WeatherLink 5.4,2013-04-17 18:30:00,
2013-04-17 14:40:00,48.4,40.5,30.23,East,90,13.0,18.0,74,0.00,,,-99.99,WeatherLink 5.4,2013-04-17 18:40:00,
2013-04-17 14:50:00,48.2,40.6,30.23,East,90,13.0,18.0,75,0.00,,,-99.99,WeatherLink 5.4,2013-04-17 18:50:00,
2013-04-17 15:00:00,48.2,40.6,30.22,East,90,12.0,18.0,75,0.00,,,-99.99,WeatherLink 5.4,2013-04-17 19:00:00,
2013-04-17 15:10:00,48.3,40.7,30.26,ENE,67,7.0,13.0,75,0.00,,,-99.99,WeatherLink 5.4,2013-04-17 19:10:00,
2013-04-17 15:20:00,48.1,40.5,30.24,NNW,337,7.0,11.0,75,0.00,,,-99.99,WeatherLink 5.4,2013-04-17 19:20:00,
2013-04-17 15:30:00,47.3,40.8,30.20,East,90,13.0,21.0,78,0.03,,,-99.99,WeatherLink 5.4,2013-04-17 19:30:00,
2013-04-17 15:40:00,46.7,41.2,30.18,East,90,13.0,23.0,81,0.04,,,-99.99,WeatherLink 5.4,2013-04-17 19:40:00,
2013-04-17 15:50:00,45.8,41.2,30.14,East,90,22.0,29.0,84,0.06,,,-99.99,WeatherLink 5.4,2013-04-17 19:50:00,
2013-04-17 16:00:00,45.4,41.5,30.12,East,90,24.0,31.0,86,0.07,,,-99.99,WeatherLink 5.4,2013-04-17 20:00:00,
2013-04-17 16:10:00,44.8,41.5,30.14,East,90,20.0,30.0,88,0.11,,,-99.99,WeatherLink 5.4,2013-04-17 20:10:00,
2013-04-17 16:20:00,44.3,41.6,30.11,East,90,22.0,29.0,90,0.13,,,-99.99,WeatherLink 5.4,2013-04-17 20:20:00,
2013-04-17 16:30:00,44.4,41.7,30.19,East,90,18.0,31.0,90,0.11,,,-99.99,WeatherLink 5.4,2013-04-17 20:30:00,
2013-04-17 16:40:00,44.6,41.8,30.15,NNW,337,11.0,20.0,90,0.13,,,-99.99,WeatherLink 5.4,2013-04-17 20:40:00,
2013-04-17 16:50:00,43.6,41.1,30.10,East,90,21.0,32.0,91,0.20,,,-99.99,WeatherLink 5.4,2013-04-17 20:50:00,
2013-04-17 17:00:00,43.7,41.5,30.07,East,90,27.0,33.0,92,0.20,,,-99.99,WeatherLink 5.4,2013-04-17 21:00:00,
2013-04-17 17:10:00,43.9,42.0,30.12,East,90,21.0,35.0,93,0.16,,,-99.99,WeatherLink 5.4,2013-04-17 21:10:00,
2013-04-17 17:20:00,43.8,41.9,30.23,WNW,292,15.0,29.0,93,0.24,,,-99.99,WeatherLink 5.4,2013-04-17 21:20:00,
2013-04-17 17:30:00,43.5,41.9,30.20,North,0,10.0,24.0,94,0.33,,,-99.99,WeatherLink 5.4,2013-04-17 21:30:00,
2013-04-17 17:40:00,43.4,41.8,30.18,NNE,22,8.0,13.0,94,0.32,,,-99.99,WeatherLink 5.4,2013-04-17 21:40:00,
2013-04-17 17:50:00,43.3,41.7,30.15,East,90,11.0,23.0,94,0.23,,,-99.99,WeatherLink 5.4,2013-04-17 21:50:00,
2013-04-17 18:00:00,43.4,41.8,30.15,East,90,15.0,22.0,94,0.22,,,-99.99,WeatherLink 5.4,2013-04-17 22:00:00,
2013-04-17 18:10:00,43.4,42.1,30.18,NNE,22,9.0,13.0,95,0.30,,,-99.99,WeatherLink 5.4,2013-04-17 22:10:00,
2013-04-17 18:20:00,43.3,42.0,30.21,NNE,22,7.0,12.0,95,0.26,,,-99.99,WeatherLink 5.4,2013-04-17 22:20:00,
2013-04-17 18:30:00,43.2,41.9,30.16,East,90,11.0,20.0,95,0.22,,,-99.99,WeatherLink 5.4,2013-04-17 22:30:00,
2013-04-17 18:40:00,43.1,41.8,30.14,East,90,18.0,25.0,95,0.25,,,-99.99,WeatherLink 5.4,2013-04-17 22:40:00,
2013-04-17 18:50:00,42.9,41.6,30.11,East,90,23.0,33.0,95,0.30,,,-99.99,WeatherLink 5.4,2013-04-17 22:50:00,
2013-04-17 19:00:00,42.9,41.8,30.08,East,90,25.0,34.0,96,0.34,,,-99.99,WeatherLink 5.4,2013-04-17 23:00:00,
2013-04-17 19:10:00,42.9,41.8,30.06,ESE,112,26.0,38.0,96,0.30,,,-99.99,WeatherLink 5.4,2013-04-17 23:10:00,
2013-04-17 19:20:00,43.1,42.0,30.03,ESE,112,26.0,40.0,96,0.27,,,-99.99,WeatherLink 5.4,2013-04-17 23:20:00,
2013-04-17 19:30:00,43.4,42.3,30.00,ESE,112,31.0,49.0,96,0.24,,,-99.99,WeatherLink 5.4,2013-04-17 23:30:00,
2013-04-17 19:40:00,43.4,42.3,29.97,ESE,112,35.0,54.0,96,0.23,,,-99.99,WeatherLink 5.4,2013-04-17 23:40:00,
2013-04-17 19:50:00,43.6,42.5,30.02,ESE,112,26.0,40.0,96,0.19,,,-99.99,WeatherLink 5.4,2013-04-17 23:50:00,
2013-04-17 20:00:00,43.8,42.7,30.00,ESE,112,22.0,36.0,96,0.19,,,-99.99,WeatherLink 5.4,2013-04-18 00:00:00,
2013-04-17 20:10:00,44.0,42.9,30.10,East,90,13.0,30.0,96,0.15,,,-99.99,WeatherLink 5.4,2013-04-18 00:10:00,
2013-04-17 20:20:00,44.1,43.0,30.06,East,90,14.0,24.0,96,0.12,,,-99.99,WeatherLink 5.4,2013-04-18 00:20:00,
2013-04-17 20:30:00,44.3,43.2,30.07,East,90,17.0,25.0,96,0.09,,,-99.99,WeatherLink 5.4,2013-04-18 00:30:00,
2013-04-17 20:40:00,44.4,43.3,30.07,East,90,14.0,21.0,96,0.05,,,-99.99,WeatherLink 5.4,2013-04-18 00:40:00,
2013-04-17 20:50:00,44.4,43.3,30.06,ESE,112,13.0,22.0,96,0.04,,,-99.99,WeatherLink 5.4,2013-04-18 00:50:00,
2013-04-17 21:00:00,44.4,43.1,30.06,East,90,16.0,22.0,95,0.00,,,-99.99,WeatherLink 5.4,2013-04-18 01:00:00,
2013-04-17 21:10:00,44.4,43.1,30.05,East,90,16.0,23.0,95,0.01,,,-99.99,WeatherLink 5.4,2013-04-18 01:10:00,
2013-04-17 21:20:00,44.5,43.2,30.06,ESE,112,14.0,22.0,95,0.01,,,-99.99,WeatherLink 5.4,2013-04-18 01:20:00,
2013-04-17 21:30:00,44.4,43.1,30.01,East,90,18.0,28.0,95,0.01,,,-99.99,WeatherLink 5.4,2013-04-18 01:30:00,
2013-04-17 21:40:00,44.4,43.1,29.99,East,90,19.0,27.0,95,0.01,,,-99.99,WeatherLink 5.4,2013-04-18 01:40:00,
2013-04-17 21:50:00,44.5,43.2,29.98,East,90,21.0,28.0,95,0.01,,,-99.99,WeatherLink 5.4,2013-04-18 01:50:00,
2013-04-17 22:00:00,44.7,43.4,29.95,ESE,112,20.0,27.0,95,0.01,,,-99.99,WeatherLink 5.4,2013-04-18 02:00:00,
2013-04-17 22:10:00,45.0,43.9,29.94,ESE,112,23.0,36.0,96,0.00,,,-99.99,WeatherLink 5.4,2013-04-18 02:10:00,
2013-04-17 22:20:00,45.1,43.8,29.97,ESE,112,21.0,36.0,95,0.00,,,-99.99,WeatherLink 5.4,2013-04-18 02:20:00,
2013-04-17 22:30:00,45.3,44.0,30.00,East,90,15.0,26.0,95,0.00,,,-99.99,WeatherLink 5.4,2013-04-18 02:30:00,
2013-04-17 22:40:00,45.4,44.1,30.00,ESE,112,13.0,24.0,95,0.00,,,-99.99,WeatherLink 5.4,2013-04-18 02:40:00,
2013-04-17 22:50:00,45.5,44.2,29.99,ESE,112,16.0,27.0,95,0.00,,,-99.99,WeatherLink 5.4,2013-04-18 02:50:00,
2013-04-17 23:00:00,45.6,44.0,29.98,East,90,16.0,25.0,94,0.00,,,-99.99,WeatherLink 5.4,2013-04-18 03:00:00,
2013-04-17 23:10:00,45.6,44.0,29.99,East,90,12.0,21.0,94,0.01,,,-99.99,WeatherLink 5.4,2013-04-18 03:10:00,
2013-04-17 23:20:00,45.5,43.9,30.00,NNE,22,6.0,13.0,94,0.01,,,-99.99,WeatherLink 5.4,2013-04-18 03:20:00,
2013-04-17 23:30:00,45.4,43.8,30.00,East,90,10.0,13.0,94,0.01,,,-99.99,WeatherLink 5.4,2013-04-18 03:30:00,
2013-04-17 23:40:00,45.4,44.1,30.00,East,90,10.0,15.0,95,0.01,,,-99.99,WeatherLink 5.4,2013-04-18 03:40:00,
2013-04-17 23:50:00,45.4,44.1,30.02,East,90,9.0,13.0,95,0.01,,,-99.99,WeatherLink 5.4,2013-04-18 03:50:00,